Airfield :
LOGIN :

Register | Disclaimer

   EN    FR    IT 

 










Legend :    VFR   Marginal VFR   IFR   Intensive IFR   Very Intensive IFR
Visi :
Ceiling :
>= 8 km
>= 3000ft
5 to 8 km
1000 to 3000 ft
1500m to 5 km
500 to 1000 ft
800 to 1500m
200 to 500 ft
< 800m
< 200 ft
Symbols :   Thunderstorms  Fog  Heavy snow  Heavy precipitations  Wind > 20 kt
SIGMETs :     Misc.  Thunderstorms  Icing  Turbulence  Mountain Waves  Volcanic Ashes






- Airport Elevation : 36 ft
- IATA code : LTQ


LFAT - Le Touquet

CURRENT METAR :
  • 231000Z AUTO 11005KT CAVOK 11/11 Q1027 NOSIG

EXPIRED METARs :
  • 230930Z AUTO 13005KT CAVOK 11/10 Q1027 NOSIG
  • 230900Z AUTO 13005KT 9999 FEW040 OVC058 10/10 Q1027 NOSIG
  • 230830Z AUTO 13005KT CAVOK 09/09 Q1027 NOSIG
  • 230800Z AUTO 14004KT 9999 FEW028 OVC054 09/09 Q1026 NOSIG
  • 230730Z AUTO 13003KT 9999 FEW032 SCT043 OVC054 08/08 Q1026 NOSIG

TAF TAF LFAT
Valid from the 23 at 09:00 until the 23 at 18:00 UTC


230800Z 2309/2318 VRB03KT CAVOK
ATIS : +33 3 21 06 62 84



MET'MAP, your aeronautical weather chart ! - Copyright ORBIFLY December 2007 - Disclaimer

ORBIFLY MET'MAP TEAM :

Programming & Development : Alexandra Zaïnal
Concept & original design : Baudouin d'Aumeries
Assistance for programming : Marc-Olivier Méhu
Technical & hardware support : Manuel Goepfert

Contact : metmap@orbifly.com




SOURCES & CREDITS :

   NOAA